Time;durP1;ratioP1;P1;durP2;ratioP2;P2;SDS_P1;SDS_P2;PMS_P1;PMS_P2;Temp;Humidity;BMP_temperature;BMP_pressure;BME280_temperature;BME280_humidity;BME280_pressure;Samples;Min_cycle;Max_cycle;Signal;HPM_P1;HPM_P2
2024/02/08 00:00:01;;;;;;;2.70;1.23;;;7.80;95.10;;;;;;5071024;28;20209;-88
2024/02/08 00:02:28;;;;;;;2.47;1.30;;;7.80;95.70;;;;;;5047737;28;20196;-88
2024/02/08 00:04:55;;;;;;;1.70;1.45;;;7.80;95.70;;;;;;5051303;28;20251;-92
2024/02/08 00:07:22;;;;;;;2.70;1.48;;;7.80;95.70;;;;;;5062271;28;20197;-88
2024/02/08 00:09:50;;;;;;;1.42;1.20;;;7.70;95.60;;;;;;5060166;28;20243;-90
2024/02/08 00:12:18;;;;;;;3.92;1.50;;;7.70;95.70;;;;;;5060128;28;20197;-90
2024/02/08 00:14:49;;;;;;;3.03;1.00;;;7.70;96.10;;;;;;5073723;28;20255;-88
2024/02/08 00:17:19;;;;;;;3.00;1.40;;;7.70;95.70;;;;;;5074444;28;20205;-89
2024/02/08 00:19:48;;;;;;;2.05;1.30;;;7.70;96.10;;;;;;5051691;28;20204;-88
2024/02/08 00:22:15;;;;;;;1.70;1.38;;;7.70;96.60;;;;;;5075571;28;20192;-90
2024/02/08 00:24:42;;;;;;;1.33;1.23;;;7.70;96.20;;;;;;5049776;28;20197;-89
2024/02/08 00:27:09;;;;;;;1.58;1.30;;;7.70;96.30;;;;;;5057950;28;20216;-89
2024/02/08 00:29:40;;;;;;;1.63;1.27;;;7.70;95.70;;;;;;5042990;28;20206;-89
2024/02/08 00:32:08;;;;;;;2.15;1.27;;;7.70;96.00;;;;;;5070996;28;20212;-89
2024/02/08 00:34:38;;;;;;;0.93;0.93;;;7.80;95.70;;;;;;5072925;28;20198;-88
2024/02/08 00:37:06;;;;;;;2.15;1.23;;;7.80;95.70;;;;;;5072527;28;20231;-91
2024/02/08 00:39:32;;;;;;;1.42;1.10;;;7.80;95.70;;;;;;5063705;28;20248;-89
2024/02/08 00:42:00;;;;;;;2.60;1.33;;;7.80;95.70;;;;;;5069995;28;20196;-89
2024/02/08 00:44:27;;;;;;;1.17;1.10;;;7.90;95.70;;;;;;5064939;28;20198;-88
2024/02/08 00:46:54;;;;;;;1.20;1.10;;;7.90;95.40;;;;;;5052109;28;20658;-89
2024/02/08 00:49:23;;;;;;;2.35;1.00;;;7.90;95.40;;;;;;5071472;28;20212;-88
2024/02/08 00:51:50;;;;;;;1.15;0.93;;;7.90;95.20;;;;;;5047658;28;20716;-88
2024/02/08 00:54:17;;;;;;;1.65;1.17;;;8.00;95.00;;;;;;5036889;28;20202;-88
2024/02/08 00:56:44;;;;;;;1.13;1.00;;;8.00;95.00;;;;;;5062555;28;20320;-88
2024/02/08 00:59:11;;;;;;;1.88;1.20;;;8.00;94.80;;;;;;5071986;28;20579;-88
2024/02/08 01:01:40;;;;;;;0.90;0.90;;;8.00;94.60;;;;;;5055158;28;20567;-88
2024/02/08 01:04:08;;;;;;;1.70;1.00;;;8.00;94.60;;;;;;5070770;28;20193;-89
2024/02/08 01:06:40;;;;;;;0.80;0.80;;;8.00;94.30;;;;;;5065187;28;20254;-88
2024/02/08 01:09:07;;;;;;;1.23;0.95;;;8.10;94.20;;;;;;5072902;28;20189;-90
2024/02/08 01:11:34;;;;;;;0.98;0.90;;;8.10;94.10;;;;;;5072922;28;20525;-89
2024/02/08 01:14:03;;;;;;;1.90;0.70;;;8.10;94.10;;;;;;5065393;28;20212;-88
2024/02/08 01:16:31;;;;;;;0.90;0.90;;;8.10;94.00;;;;;;5072933;28;20216;-88
2024/02/08 01:18:58;;;;;;;0.98;0.80;;;8.10;93.70;;;;;;5058706;28;20201;-88
2024/02/08 01:21:26;;;;;;;1.00;1.00;;;8.20;93.60;;;;;;5069872;28;20201;-89
2024/02/08 01:23:54;;;;;;;0.88;0.88;;;8.20;94.00;;;;;;5057480;28;20200;-88
2024/02/08 01:26:21;;;;;;;1.30;0.90;;;8.20;93.50;;;;;;5046271;28;20213;-88
2024/02/08 01:28:48;;;;;;;1.40;0.90;;;8.20;93.50;;;;;;5076488;28;20197;-90
2024/02/08 01:31:15;;;;;;;0.80;0.80;;;8.20;93.60;;;;;;5060656;28;20208;-88
2024/02/08 01:33:44;;;;;;;0.82;0.60;;;8.30;93.40;;;;;;5053783;28;20239;-88
2024/02/08 01:36:11;;;;;;;0.80;0.80;;;8.30;93.10;;;;;;5064817;28;20221;-88
2024/02/08 01:38:40;;;;;;;1.02;0.75;;;8.30;93.10;;;;;;5054133;28;20236;-88
2024/02/08 01:41:09;;;;;;;0.70;0.70;;;8.30;93.40;;;;;;5077872;28;20201;-89
2024/02/08 01:43:36;;;;;;;0.70;0.60;;;8.30;93.50;;;;;;5073785;28;20211;-89
2024/02/08 01:46:03;;;;;;;0.80;0.80;;;8.30;93.50;;;;;;5044985;28;20194;-88
2024/02/08 01:48:30;;;;;;;1.10;0.95;;;8.30;93.30;;;;;;5048392;28;20208;-88
2024/02/08 01:51:02;;;;;;;0.60;0.60;;;8.40;93.00;;;;;;5058196;28;20266;-88
2024/02/08 01:53:31;;;;;;;1.15;0.85;;;8.50;93.00;;;;;;5069629;28;20691;-88
2024/02/08 01:56:02;;;;;;;1.15;0.80;;;8.50;92.50;;;;;;5075113;28;20202;-88
2024/02/08 01:58:31;;;;;;;1.10;0.80;;;8.50;92.50;;;;;;5074101;28;20225;-89
2024/02/08 02:01:00;;;;;;;0.75;0.57;;;8.50;92.50;;;;;;5049155;28;20618;-87
2024/02/08 02:03:31;;;;;;;0.60;0.60;;;8.50;92.30;;;;;;5075172;28;20272;-87
2024/02/08 02:05:58;;;;;;;0.60;0.60;;;8.60;92.40;;;;;;5069929;28;20254;-88
2024/02/08 02:08:26;;;;;;;1.15;0.80;;;8.50;91.90;;;;;;5059696;28;20680;-87
2024/02/08 02:11:01;;;;;;;1.70;0.70;;;8.60;91.90;;;;;;5037264;28;20280;-87
2024/02/08 02:13:30;;;;;;;0.60;0.60;;;8.60;91.90;;;;;;5039901;28;20310;-88
2024/02/08 02:15:57;;;;;;;0.93;0.70;;;8.60;91.90;;;;;;5077419;28;20284;-87
2024/02/08 02:18:24;;;;;;;0.90;0.65;;;8.60;92.00;;;;;;5075207;28;20217;-87
2024/02/08 02:20:54;;;;;;;0.52;0.52;;;8.60;91.90;;;;;;5033633;28;20206;-87
2024/02/08 02:23:22;;;;;;;1.00;0.50;;;8.70;91.80;;;;;;5053233;28;20185;-88
2024/02/08 02:25:51;;;;;;;0.95;0.60;;;8.70;91.70;;;;;;5074674;28;20197;-87
2024/02/08 02:28:19;;;;;;;1.17;0.60;;;8.70;91.50;;;;;;5075748;28;20193;-87
2024/02/08 02:30:48;;;;;;;0.65;0.65;;;8.70;91.30;;;;;;5071348;28;20209;-87
2024/02/08 02:33:16;;;;;;;1.08;0.77;;;8.80;91.30;;;;;;5085889;28;20617;-87
2024/02/08 02:35:49;;;;;;;0.77;0.70;;;8.80;91.40;;;;;;5076302;28;20194;-86
2024/02/08 02:38:17;;;;;;;0.45;0.45;;;8.80;91.30;;;;;;5055553;28;20332;-87
2024/02/08 02:40:46;;;;;;;0.68;0.55;;;8.90;91.20;;;;;;5077943;28;20210;-87
2024/02/08 02:43:13;;;;;;;0.47;0.47;;;8.90;91.20;;;;;;5073385;28;20221;-87
2024/02/08 02:45:40;;;;;;;0.60;0.60;;;8.90;91.20;;;;;;5065522;28;20196;-86
2024/02/08 02:48:08;;;;;;;0.60;0.60;;;8.90;91.10;;;;;;5058493;28;20672;-87
2024/02/08 02:50:41;;;;;;;0.90;0.60;;;8.90;91.20;;;;;;5063277;28;20212;-86
2024/02/08 02:53:08;;;;;;;0.65;0.60;;;8.90;91.50;;;;;;5067644;28;20205;-86
2024/02/08 02:55:36;;;;;;;0.68;0.63;;;8.90;91.50;;;;;;5075931;28;20653;-87
2024/02/08 02:58:07;;;;;;;0.50;0.50;;;8.90;91.50;;;;;;5035071;28;21042;-87
2024/02/08 03:00:37;;;;;;;0.60;0.60;;;8.90;91.60;;;;;;5069596;28;20208;-87
2024/02/08 03:03:08;;;;;;;0.90;0.60;;;8.80;91.60;;;;;;5075112;28;20193;-87
2024/02/08 03:05:35;;;;;;;0.40;0.40;;;8.80;91.90;;;;;;5076360;28;20193;-86
2024/02/08 03:08:06;;;;;;;1.55;0.68;;;8.80;92.00;;;;;;5066045;28;20579;-87
2024/02/08 03:10:34;;;;;;;0.70;0.70;;;8.90;92.20;;;;;;5078940;28;20654;-87
2024/02/08 03:13:01;;;;;;;0.40;0.40;;;8.80;92.30;;;;;;5068207;28;20585;-86
2024/02/08 03:15:30;;;;;;;2.15;0.90;;;8.90;92.40;;;;;;5058557;28;20668;-87
2024/02/08 03:17:57;;;;;;;1.98;0.55;;;8.80;92.50;;;;;;5059016;28;20284;-89
2024/02/08 03:20:29;;;;;;;0.70;0.70;;;8.90;92.60;;;;;;5066134;28;20203;-87
2024/02/08 03:22:57;;;;;;;1.20;0.88;;;8.90;92.90;;;;;;5076975;28;20189;-87
2024/02/08 03:25:24;;;;;;;0.55;0.55;;;8.80;93.20;;;;;;5053703;28;20251;-87
2024/02/08 03:27:52;;;;;;;0.60;0.60;;;8.80;93.60;;;;;;5065697;28;20205;-87
2024/02/08 03:30:20;;;;;;;0.80;0.70;;;8.80;93.90;;;;;;5074196;28;20211;-86
2024/02/08 03:33:05;;;;;;;0.60;0.50;;;8.80;93.60;;;;;;5049825;28;20197;-86
2024/02/08 03:35:36;;;;;;;0.80;0.70;;;8.80;94.00;;;;;;5049737;28;20201;-87
2024/02/08 03:38:03;;;;;;;0.40;0.40;;;8.80;93.90;;;;;;5065196;28;20324;-86
2024/02/08 03:40:39;;;;;;;0.50;0.50;;;8.80;93.80;;;;;;5073854;28;20205;-87
2024/02/08 03:43:06;;;;;;;0.68;0.50;;;8.70;94.00;;;;;;5080205;28;20208;-87
2024/02/08 03:45:39;;;;;;;0.63;0.50;;;8.70;94.00;;;;;;5059721;28;20193;-87
2024/02/08 03:48:10;;;;;;;0.52;0.52;;;8.80;94.10;;;;;;5050468;28;20549;-87
2024/02/08 03:50:39;;;;;;;0.50;0.50;;;8.80;93.90;;;;;;5068250;28;20558;-89
2024/02/08 03:53:12;;;;;;;0.75;0.50;;;8.80;94.00;;;;;;5072865;28;20325;-87
2024/02/08 03:55:43;;;;;;;0.60;0.60;;;8.80;93.90;;;;;;5024582;28;20205;-87
2024/02/08 03:58:13;;;;;;;0.43;0.43;;;8.80;93.80;;;;;;5053873;28;20224;-88
2024/02/08 04:00:42;;;;;;;2.15;0.88;;;8.80;94.00;;;;;;5052017;28;20233;-88
2024/02/08 04:03:14;;;;;;;0.50;0.50;;;8.80;93.80;;;;;;5054745;28;20662;-87
2024/02/08 04:05:58;;;;;;;1.00;0.68;;;9.00;93.40;;;;;;5072042;28;20197;-87
2024/02/08 04:09:05;;;;;;;0.45;0.45;;;8.90;93.60;;;;;;5077445;28;20234;-87
2024/02/08 04:55:42;;;;;;;0.47;0.47;;;8.70;95.90;;;;;;5072189;28;20207;-87
2024/02/08 04:58:09;;;;;;;0.55;0.50;;;8.80;95.90;;;;;;5073099;28;20225;-88
2024/02/08 05:00:37;;;;;;;0.52;0.52;;;8.80;95.30;;;;;;5070145;28;20203;-88
2024/02/08 05:03:06;;;;;;;0.82;0.50;;;8.80;95.10;;;;;;5074668;28;20296;-87
2024/02/08 05:05:34;;;;;;;0.40;0.40;;;8.90;94.90;;;;;;5068726;28;20202;-88
2024/02/08 05:08:03;;;;;;;0.35;0.35;;;9.00;94.10;;;;;;5054362;28;20252;-87
2024/02/08 05:10:29;;;;;;;1.63;0.47;;;9.10;93.60;;;;;;5067996;28;20190;-88
2024/02/08 05:12:56;;;;;;;0.70;0.57;;;9.00;93.50;;;;;;5067365;28;20197;-88
2024/02/08 05:15:27;;;;;;;0.82;0.50;;;9.10;93.50;;;;;;5072261;28;20556;-92
2024/02/08 05:17:55;;;;;;;0.55;0.55;;;9.10;93.20;;;;;;5063448;28;20227;-87
2024/02/08 05:20:22;;;;;;;0.80;0.60;;;9.20;92.60;;;;;;5055664;28;20209;-88
2024/02/08 05:22:49;;;;;;;0.57;0.40;;;9.30;92.60;;;;;;5049795;28;20539;-87
2024/02/08 05:25:21;;;;;;;0.68;0.68;;;9.20;92.50;;;;;;5076578;28;20209;-84
2024/02/08 05:27:48;;;;;;;0.60;0.50;;;9.20;92.60;;;;;;5067868;28;20196;-86
2024/02/08 05:30:17;;;;;;;0.50;0.50;;;9.20;92.50;;;;;;5078085;28;20213;-87
2024/02/08 05:32:44;;;;;;;0.50;0.50;;;9.20;92.70;;;;;;5075382;28;20288;-86
2024/02/08 05:35:13;;;;;;;0.65;0.65;;;9.20;92.80;;;;;;5075249;28;20251;-86
2024/02/08 05:37:40;;;;;;;0.47;0.47;;;9.20;92.80;;;;;;5056617;28;20193;-84
2024/02/08 05:40:13;;;;;;;1.23;0.60;;;9.10;93.00;;;;;;5069542;28;20205;-86
2024/02/08 05:42:43;;;;;;;0.50;0.50;;;9.20;93.20;;;;;;5083005;28;20196;-85
2024/02/08 05:45:19;;;;;;;0.85;0.50;;;9.10;93.60;;;;;;5063613;28;20197;-84
2024/02/08 05:47:48;;;;;;;0.40;0.40;;;9.10;94.00;;;;;;5076095;28;20189;-87
2024/02/08 05:53:53;;;;;;;1.30;0.50;;;8.90;95.90;;;;;;5083462;28;20173;-85
2024/02/08 05:56:21;;;;;;;0.60;0.60;;;8.80;97.20;;;;;;5077219;28;20225;-84
2024/02/08 05:58:51;;;;;;;2.10;0.77;;;8.60;97.90;;;;;;5072942;28;20232;-86
2024/02/08 06:01:20;;;;;;;0.50;0.50;;;8.60;98.40;;;;;;5080669;28;20192;-85
2024/02/08 06:03:48;;;;;;;0.75;0.60;;;8.60;98.20;;;;;;5062431;28;20265;-85
2024/02/08 06:06:26;;;;;;;0.60;0.60;;;8.50;98.70;;;;;;5033914;28;20202;-85
2024/02/08 06:08:56;;;;;;;0.75;0.55;;;8.50;98.90;;;;;;5044298;28;20283;-86
2024/02/08 06:11:24;;;;;;;0.50;0.50;;;8.50;99.00;;;;;;5051446;28;20686;-82
2024/02/08 06:13:55;;;;;;;0.60;0.60;;;8.50;98.80;;;;;;5074735;28;20654;-84
2024/02/08 06:16:29;;;;;;;0.63;0.60;;;8.60;98.50;;;;;;5072130;28;20634;-86
2024/02/08 06:19:02;;;;;;;1.17;0.65;;;8.60;98.40;;;;;;5052211;28;20214;-85
2024/02/08 06:21:45;;;;;;;0.52;0.52;;;8.60;98.00;;;;;;5053650;28;20272;-89
2024/02/08 06:24:32;;;;;;;0.50;0.50;;;8.70;97.60;;;;;;5074453;28;20681;-89
2024/02/08 06:27:01;;;;;;;0.70;0.70;;;8.80;97.30;;;;;;5056942;28;20216;-84
2024/02/08 06:29:42;;;;;;;0.68;0.68;;;8.80;97.20;;;;;;5034038;28;20217;-85
2024/02/08 06:35:06;;;;;;;0.73;0.70;;;8.80;96.90;;;;;;5066946;28;20641;-89
2024/02/08 06:37:33;;;;;;;0.65;0.60;;;8.80;96.40;;;;;;5060745;28;20204;-85
2024/02/08 06:40:04;;;;;;;0.70;0.70;;;8.90;96.40;;;;;;5059820;28;20229;-84
2024/02/08 06:42:44;;;;;;;0.75;0.75;;;8.90;96.20;;;;;;5080591;28;20193;-84
2024/02/08 06:48:14;;;;;;;1.15;0.68;;;8.90;95.90;;;;;;5042924;28;20201;-85
2024/02/08 07:37:25;;;;;;;0.70;0.70;;;10.00;90.30;;;;;;5068929;28;20208;-85
2024/02/08 07:39:58;;;;;;;0.90;0.80;;;10.10;87.90;;;;;;5042253;28;20572;-85
2024/02/08 07:42:32;;;;;;;1.08;0.50;;;10.00;88.60;;;;;;5056894;28;20219;-85
2024/02/08 07:45:04;;;;;;;0.95;0.50;;;9.90;90.00;;;;;;5071607;28;20201;-84
2024/02/08 07:47:33;;;;;;;0.47;0.47;;;9.90;89.30;;;;;;5077987;28;20196;-85
2024/02/08 07:50:05;;;;;;;0.50;0.50;;;10.00;88.10;;;;;;5055917;28;20745;-86
2024/02/08 07:52:38;;;;;;;0.55;0.55;;;10.20;86.90;;;;;;5066999;28;20204;-84
2024/02/08 07:55:20;;;;;;;0.55;0.52;;;10.60;85.80;;;;;;5064618;28;20217;-85
2024/02/08 07:57:48;;;;;;;0.55;0.55;;;11.00;81.00;;;;;;5072188;28;20225;-85
2024/02/08 08:00:32;;;;;;;0.47;0.47;;;11.30;76.30;;;;;;5069620;28;20267;-86
2024/02/08 08:03:00;;;;;;;1.52;0.50;;;11.70;75.00;;;;;;5059869;28;20688;-85
2024/02/08 08:05:33;;;;;;;0.50;0.50;;;11.50;72.60;;;;;;5056206;28;20201;-85
2024/02/08 08:08:01;;;;;;;0.52;0.52;;;11.50;74.80;;;;;;5025201;28;20284;-85
2024/02/08 08:10:33;;;;;;;0.65;0.65;;;11.40;74.60;;;;;;5052423;28;20284;-86
2024/02/08 08:13:06;;;;;;;0.75;0.70;;;11.40;74.70;;;;;;5054711;28;20197;-84
2024/02/08 08:15:48;;;;;;;0.65;0.50;;;11.40;74.60;;;;;;5068092;28;20195;-84
2024/02/08 08:18:23;;;;;;;0.45;0.45;;;11.30;74.50;;;;;;5058735;28;20197;-85
2024/02/08 08:20:57;;;;;;;0.38;0.38;;;11.30;74.50;;;;;;5069500;28;20275;-85
2024/02/08 08:23:26;;;;;;;0.35;0.30;;;11.30;74.50;;;;;;5069592;28;20217;-84
2024/02/08 08:28:40;;;;;;;0.65;0.65;;;11.30;74.50;;;;;;5070264;28;20199;-85
2024/02/08 08:34:03;;;;;;;1.42;0.50;;;11.10;74.30;;;;;;5054859;28;20226;-85
2024/02/08 08:36:34;;;;;;;0.63;0.60;;;11.10;74.30;;;;;;5077524;28;20555;-85
2024/02/08 08:41:46;;;;;;;0.70;0.70;;;11.20;74.40;;;;;;5069242;28;20203;-86
2024/02/08 08:44:18;;;;;;;1.17;0.70;;;11.30;74.50;;;;;;5055227;28;20193;-85
2024/02/08 08:46:45;;;;;;;1.60;0.60;;;11.60;74.90;;;;;;5068144;28;20194;-85
2024/02/08 08:49:20;;;;;;;0.40;0.40;;;11.90;71.00;;;;;;5068989;28;20556;-85
2024/02/08 08:51:58;;;;;;;0.77;0.60;;;12.00;69.10;;;;;;5062597;28;20201;-84
2024/02/08 08:54:29;;;;;;;0.57;0.40;;;12.20;67.20;;;;;;5069727;28;20215;-85
2024/02/08 08:56:57;;;;;;;0.50;0.50;;;12.40;66.20;;;;;;5068320;28;20217;-85
2024/02/08 08:59:26;;;;;;;1.90;0.50;;;12.50;62.30;;;;;;5052471;28;20253;-85
2024/02/08 09:01:53;;;;;;;0.43;0.40;;;12.40;59.60;;;;;;5069557;28;20297;-84
2024/02/08 09:04:25;;;;;;;2.13;0.68;;;12.30;61.00;;;;;;5052752;28;20193;-85
2024/02/08 09:07:10;;;;;;;0.60;0.60;;;12.30;59.60;;;;;;5067519;28;20688;-85
2024/02/08 09:12:30;;;;;;;1.45;0.80;;;12.40;60.00;;;;;;5072901;28;20200;-85
2024/02/08 09:15:19;;;;;;;1.48;0.60;;;12.40;59.30;;;;;;5062147;28;20194;-85
2024/02/08 09:17:51;;;;;;;0.45;0.45;;;12.60;59.10;;;;;;5063888;28;20208;-84
2024/02/08 09:20:23;;;;;;;0.50;0.50;;;12.70;56.00;;;;;;5071668;28;20715;-84
2024/02/08 09:22:52;;;;;;;0.57;0.57;;;12.70;55.00;;;;;;5068580;28;20653;-85
2024/02/08 09:25:19;;;;;;;0.80;0.80;;;12.70;54.60;;;;;;5052863;28;20559;-84
2024/02/08 09:27:53;;;;;;;0.40;0.40;;;12.50;56.30;;;;;;5052872;28;20664;-85
2024/02/08 09:30:37;;;;;;;0.55;0.50;;;12.50;55.90;;;;;;5053764;28;20279;-84
2024/02/08 09:33:13;;;;;;;0.45;0.45;;;12.50;56.10;;;;;;5080967;28;20207;-85
2024/02/08 09:35:41;;;;;;;1.05;0.68;;;12.60;56.20;;;;;;5039740;28;20210;-84
2024/02/08 09:38:18;;;;;;;0.73;0.40;;;12.70;56.60;;;;;;5085211;28;20193;-86
2024/02/08 09:43:35;;;;;;;0.55;0.55;;;12.70;55.80;;;;;;5058170;28;20233;-85
2024/02/08 09:46:10;;;;;;;0.60;0.60;;;12.90;54.70;;;;;;5041774;28;20212;-86
2024/02/08 09:48:43;;;;;;;0.70;0.70;;;13.00;53.70;;;;;;5073636;28;20287;-84
2024/02/08 09:51:13;;;;;;;1.38;0.73;;;13.30;52.60;;;;;;5069383;28;20206;-85
2024/02/08 09:53:51;;;;;;;0.63;0.57;;;13.90;50.40;;;;;;5072059;28;20220;-88
2024/02/08 09:56:28;;;;;;;0.50;0.50;;;14.10;46.00;;;;;;5067771;28;20241;-88
2024/02/08 09:59:02;;;;;;;0.50;0.50;;;14.00;44.30;;;;;;5050389;28;20304;-92
2024/02/08 10:01:35;;;;;;;5.82;0.90;;;14.10;46.00;;;;;;5067837;28;20184;-88
2024/02/08 10:04:05;;;;;;;1.02;0.70;;;14.20;45.70;;;;;;5068451;28;20223;-88
2024/02/08 10:06:45;;;;;;;2.40;0.52;;;14.80;41.50;;;;;;5066640;28;20538;-86
2024/02/08 10:12:06;;;;;;;0.80;0.77;;;14.70;38.60;;;;;;5057034;28;20545;-85
2024/02/08 10:14:34;;;;;;;1.88;0.60;;;14.80;39.20;;;;;;5071230;28;20190;-88
2024/02/08 10:17:14;;;;;;;0.95;0.90;;;14.70;39.00;;;;;;5078576;28;20192;-85
2024/02/08 10:20:32;;;;;;;0.80;0.77;;;15.00;39.30;;;;;;5061521;28;20576;-84
2024/02/08 10:22:53;;;;;;;0.73;0.70;;;14.90;38.30;;;;;;5052436;28;20557;-86
2024/02/08 10:28:07;;;;;;;0.73;0.70;;;14.80;38.00;;;;;;5070712;28;20704;-87
2024/02/08 10:30:36;;;;;;;0.50;0.50;;;15.10;38.10;;;;;;5081236;28;20201;-89
2024/02/08 10:33:04;;;;;;;0.60;0.60;;;15.20;36.90;;;;;;5072087;28;20641;-89
2024/02/08 10:35:39;;;;;;;0.50;0.50;;;15.30;36.30;;;;;;5070998;28;20701;-87
2024/02/08 10:38:08;;;;;;;0.70;0.60;;;15.10;36.70;;;;;;5069330;28;20205;-85
2024/02/08 10:40:39;;;;;;;1.20;0.68;;;15.10;38.00;;;;;;5054212;28;20221;-85
2024/02/08 10:43:16;;;;;;;1.75;0.70;;;15.20;37.60;;;;;;5075286;28;20617;-86
2024/02/08 10:45:52;;;;;;;2.30;0.80;;;15.00;37.80;;;;;;5072853;28;20189;-85
2024/02/08 10:48:21;;;;;;;1.75;0.60;;;15.00;38.60;;;;;;5071125;28;20215;-85
2024/02/08 10:50:49;;;;;;;1.70;0.60;;;15.10;37.40;;;;;;5065598;28;20228;-86
2024/02/08 10:53:43;;;;;;;0.60;0.60;;;15.10;38.00;;;;;;5073232;28;20247;-85
2024/02/08 10:56:14;;;;;;;1.95;0.70;;;15.00;38.70;;;;;;5076101;28;21790;-87
2024/02/08 10:59:09;;;;;;;2.65;0.68;;;14.90;39.10;;;;;;5070601;28;20221;-87
2024/02/08 11:01:37;;;;;;;1.05;0.50;;;14.70;40.00;;;;;;5065835;28;20392;-87
2024/02/08 11:04:17;;;;;;;0.80;0.80;;;14.60;40.50;;;;;;5073100;28;20197;-88
2024/02/08 11:06:54;;;;;;;0.57;0.57;;;14.50;41.00;;;;;;5052280;28;20205;-85
2024/02/08 11:09:22;;;;;;;0.40;0.40;;;14.30;41.20;;;;;;5071076;28;20241;-86
2024/02/08 11:11:59;;;;;;;0.40;0.40;;;14.20;41.80;;;;;;5054529;28;20259;-86
2024/02/08 11:14:28;;;;;;;0.40;0.40;;;14.30;42.70;;;;;;5079941;28;20266;-85
2024/02/08 11:17:03;;;;;;;1.85;0.70;;;14.30;43.20;;;;;;5078621;28;20205;-87
2024/02/08 11:19:35;;;;;;;1.15;0.57;;;14.30;43.30;;;;;;5071347;28;20251;-87
2024/02/08 11:22:34;;;;;;;0.60;0.60;;;14.40;42.30;;;;;;5073545;28;20200;-87
2024/02/08 11:25:18;;;;;;;2.15;0.52;;;14.40;43.30;;;;;;5072457;28;20202;-86
2024/02/08 11:27:48;;;;;;;1.02;0.50;;;14.40;43.00;;;;;;5079197;28;20201;-86
2024/02/08 11:30:19;;;;;;;0.65;0.65;;;14.30;42.80;;;;;;5074483;28;20556;-87
2024/02/08 11:33:01;;;;;;;0.95;0.70;;;14.40;44.60;;;;;;5081745;28;20196;-88
2024/02/08 11:35:32;;;;;;;0.40;0.40;;;14.50;42.80;;;;;;5071150;28;20189;-86
2024/02/08 11:38:15;;;;;;;0.50;0.50;;;14.30;43.40;;;;;;5065115;28;20582;-88
2024/02/08 11:40:42;;;;;;;0.52;0.50;;;14.30;45.00;;;;;;5072170;28;20549;-87
2024/02/08 11:43:23;;;;;;;2.13;0.50;;;14.30;44.70;;;;;;5056578;28;20618;-87
2024/02/08 11:45:52;;;;;;;0.47;0.47;;;14.30;45.20;;;;;;5080236;28;20680;-86
2024/02/08 11:48:26;;;;;;;0.65;0.50;;;14.30;44.20;;;;;;5077179;28;20893;-86
2024/02/08 11:50:58;;;;;;;0.43;0.43;;;14.20;44.60;;;;;;5072001;28;20193;-85
2024/02/08 11:53:33;;;;;;;0.68;0.52;;;14.20;44.70;;;;;;5074226;28;20200;-88
2024/02/08 11:56:08;;;;;;;1.08;0.60;;;14.10;46.50;;;;;;5079127;28;20627;-87
2024/02/08 11:58:42;;;;;;;0.50;0.50;;;14.00;45.80;;;;;;5030982;28;20243;-87
2024/02/08 12:01:13;;;;;;;0.30;0.30;;;13.90;47.80;;;;;;5070828;28;20209;-86
2024/02/08 12:03:42;;;;;;;4.65;0.60;;;13.90;46.80;;;;;;5070932;28;20209;-87
2024/02/08 12:06:22;;;;;;;0.77;0.60;;;13.90;47.70;;;;;;5073249;28;20636;-86
2024/02/08 12:08:57;;;;;;;2.05;0.57;;;14.10;47.70;;;;;;5051177;28;20315;-87
2024/02/08 12:11:24;;;;;;;0.85;0.50;;;14.10;47.90;;;;;;5067295;28;20193;-87
2024/02/08 12:13:56;;;;;;;1.75;0.88;;;14.10;47.80;;;;;;5059360;28;20194;-89
2024/02/08 12:16:25;;;;;;;0.55;0.55;;;14.10;48.10;;;;;;5073660;28;20288;-88
2024/02/08 12:18:56;;;;;;;0.63;0.63;;;14.10;46.60;;;;;;5073149;28;20757;-89
2024/02/08 12:21:23;;;;;;;1.67;0.60;;;14.20;47.60;;;;;;5048918;28;20578;-87
2024/02/08 12:23:53;;;;;;;0.52;0.52;;;14.20;47.30;;;;;;5065694;28;20645;-87
2024/02/08 12:26:23;;;;;;;0.60;0.60;;;14.20;46.50;;;;;;5054199;28;20232;-88
2024/02/08 12:28:56;;;;;;;2.05;0.60;;;14.30;47.30;;;;;;5071422;28;20201;-89
2024/02/08 12:31:24;;;;;;;2.15;0.63;;;14.60;46.60;;;;;;5060597;28;20193;-88
2024/02/08 12:33:53;;;;;;;0.55;0.55;;;14.60;45.30;;;;;;5042024;28;20208;-88
2024/02/08 12:36:23;;;;;;;0.60;0.60;;;14.70;43.60;;;;;;5057652;28;20202;-88
2024/02/08 12:38:52;;;;;;;0.45;0.45;;;14.60;42.70;;;;;;5052545;28;20614;-88
2024/02/08 12:41:21;;;;;;;2.58;0.70;;;14.60;44.10;;;;;;5076180;28;20997;-88
2024/02/08 12:43:51;;;;;;;1.95;0.75;;;14.60;45.10;;;;;;5070740;28;20228;-89
2024/02/08 12:46:20;;;;;;;0.80;0.52;;;14.60;44.50;;;;;;5062020;28;20200;-89
2024/02/08 12:48:48;;;;;;;0.68;0.57;;;14.40;45.30;;;;;;5063301;28;20205;-87
2024/02/08 12:51:19;;;;;;;0.43;0.43;;;14.20;47.00;;;;;;5026125;28;20198;-88
2024/02/08 12:53:46;;;;;;;0.50;0.50;;;14.00;48.00;;;;;;5044104;28;20621;-87
2024/02/08 12:56:13;;;;;;;0.52;0.52;;;13.80;50.30;;;;;;5061870;28;20221;-85
2024/02/08 12:58:40;;;;;;;0.60;0.60;;;13.80;50.30;;;;;;5050685;28;20225;-87
2024/02/08 13:01:08;;;;;;;0.80;0.80;;;13.80;50.30;;;;;;5070375;28;20217;-89
2024/02/08 13:03:38;;;;;;;0.88;0.60;;;13.90;50.40;;;;;;5054434;28;20193;-86
2024/02/08 13:06:11;;;;;;;0.73;0.70;;;14.00;50.50;;;;;;5059393;28;20197;-87
2024/02/08 13:08:44;;;;;;;0.47;0.47;;;14.00;50.50;;;;;;5059261;28;20205;-88
2024/02/08 13:11:19;;;;;;;0.70;0.70;;;14.00;50.50;;;;;;5044647;28;20681;-87
2024/02/08 13:13:49;;;;;;;0.93;0.93;;;14.00;50.50;;;;;;5066141;28;20203;-87
2024/02/08 13:16:17;;;;;;;1.05;0.70;;;14.10;51.60;;;;;;5045695;28;20212;-87
2024/02/08 13:18:54;;;;;;;1.20;1.00;;;14.10;50.50;;;;;;5047558;28;20646;-86
2024/02/08 13:21:24;;;;;;;2.25;0.70;;;14.10;50.50;;;;;;5062744;28;20221;-86
2024/02/08 13:23:51;;;;;;;0.60;0.60;;;14.00;50.50;;;;;;5065938;28;20196;-86
2024/02/08 13:26:18;;;;;;;1.90;0.80;;;14.00;50.50;;;;;;5047915;28;20201;-86
2024/02/08 13:28:45;;;;;;;0.68;0.68;;;13.90;50.40;;;;;;5065796;28;20204;-86
2024/02/08 13:31:17;;;;;;;0.52;0.52;;;13.80;50.30;;;;;;5062595;28;20700;-86
2024/02/08 13:36:30;;;;;;;2.70;0.60;;;13.50;50.10;;;;;;5059100;28;20543;-86
2024/02/08 13:39:00;;;;;;;0.50;0.50;;;13.40;51.90;;;;;;5066104;28;20196;-87
2024/02/08 13:41:33;;;;;;;0.43;0.43;;;13.40;52.10;;;;;;5070653;28;20737;-87
2024/02/08 13:44:01;;;;;;;0.50;0.50;;;13.40;52.40;;;;;;5071284;28;20224;-87
2024/02/08 13:46:30;;;;;;;0.52;0.52;;;13.40;51.80;;;;;;5072917;28;20198;-86
2024/02/08 13:48:58;;;;;;;0.60;0.57;;;13.40;50.80;;;;;;5063849;28;20198;-86
2024/02/08 13:51:26;;;;;;;0.70;0.70;;;13.30;50.50;;;;;;5048273;28;20209;-86
2024/02/08 13:53:55;;;;;;;1.15;0.60;;;13.30;52.00;;;;;;5068372;28;20198;-88
2024/02/08 13:56:22;;;;;;;0.40;0.40;;;13.20;51.40;;;;;;5052694;28;20277;-85
2024/02/08 13:58:52;;;;;;;1.40;0.60;;;13.20;52.50;;;;;;5071598;28;20217;-85
2024/02/08 14:01:25;;;;;;;0.50;0.50;;;13.20;52.70;;;;;;5070193;28;20578;-83
2024/02/08 14:03:54;;;;;;;0.98;0.80;;;13.30;51.80;;;;;;5061843;28;20190;-82
2024/02/08 14:06:22;;;;;;;0.77;0.60;;;13.40;51.20;;;;;;5060729;28;20201;-82
2024/02/08 14:08:54;;;;;;;0.77;0.75;;;13.40;49.90;;;;;;5068735;28;20600;-83
2024/02/08 14:11:26;;;;;;;0.77;0.60;;;13.30;50.30;;;;;;5062103;28;20229;-81
2024/02/08 14:13:53;;;;;;;1.25;0.77;;;13.40;49.90;;;;;;5063905;28;20722;-82
2024/02/08 14:16:21;;;;;;;0.85;0.60;;;13.40;49.90;;;;;;5069450;28;20216;-82
2024/02/08 14:18:53;;;;;;;1.58;0.90;;;13.40;50.00;;;;;;5067299;28;20201;-82
2024/02/08 14:21:24;;;;;;;1.23;0.90;;;13.30;49.80;;;;;;5072811;28;20281;-82
2024/02/08 14:24:00;;;;;;;0.65;0.63;;;13.30;49.80;;;;;;5069325;28;20287;-83
2024/02/08 14:26:43;;;;;;;3.40;1.08;;;13.30;49.80;;;;;;5067686;28;20201;-83
2024/02/08 14:29:10;;;;;;;4.30;1.40;;;13.30;49.80;;;;;;5066592;28;20649;-82
2024/02/08 14:34:39;;;;;;;4.55;1.52;;;13.20;49.70;;;;;;5063494;28;20198;-86
2024/02/08 14:37:13;;;;;;;6.57;1.40;;;13.30;49.80;;;;;;5060159;28;20200;-84
2024/02/08 14:40:29;;;;;;;3.78;1.60;;;13.20;49.70;;;;;;5070584;28;20210;-86
2024/02/08 14:43:05;;;;;;;6.95;1.45;;;13.20;49.50;;;;;;5066108;28;20197;-84
2024/02/08 14:45:39;;;;;;;4.20;1.30;;;13.20;48.50;;;;;;5070900;28;20212;-86
2024/02/08 14:48:18;;;;;;;7.60;1.77;;;13.10;49.10;;;;;;5068794;28;20672;-83
2024/02/08 14:51:05;;;;;;;11.15;2.05;;;13.00;48.50;;;;;;5061465;28;20197;-85
2024/02/08 14:53:33;;;;;;;7.50;1.90;;;13.10;49.60;;;;;;5066092;28;20208;-84
2024/02/08 14:56:02;;;;;;;6.50;2.05;;;13.00;49.50;;;;;;5066873;28;20193;-84
2024/02/08 14:58:32;;;;;;;6.47;2.08;;;13.00;48.80;;;;;;5072354;28;20228;-86
2024/02/08 15:01:08;;;;;;;7.45;1.95;;;12.90;48.30;;;;;;5067016;28;20217;-84
2024/02/08 15:03:38;;;;;;;9.18;2.20;;;12.90;49.40;;;;;;5071968;28;20288;-84
2024/02/08 15:06:38;;;;;;;7.72;1.75;;;12.80;49.30;;;;;;5060432;28;20229;-85
2024/02/08 15:09:47;;;;;;;7.55;2.03;;;12.80;49.40;;;;;;5064389;28;20263;-84
2024/02/08 15:11:57;;;;;;;11.32;1.75;;;12.70;49.30;;;;;;5059388;28;20202;-87
2024/02/08 15:14:35;;;;;;;11.93;1.95;;;12.60;49.10;;;;;;5047788;28;20243;-88
2024/02/08 15:17:07;;;;;;;7.55;1.90;;;12.60;49.20;;;;;;5070627;28;20197;-86